createdAt,value
2022-11-15T00:00:56.545Z,97625.53
2022-11-15T00:03:28.664Z,97588.47
2022-11-15T00:05:55.657Z,97552.31
2022-11-15T00:08:22.436Z,97623.16
2022-11-15T00:10:56.662Z,97617.84
2022-11-15T00:13:23.638Z,97617.31
2022-11-15T00:15:50.198Z,97611.16
2022-11-15T00:18:17.280Z,97539.66
2022-11-15T00:20:44.229Z,97559.13
2022-11-15T00:23:11.224Z,97606.22
2022-11-15T00:25:37.934Z,97612.53
2022-11-15T00:28:04.672Z,97612.81
2022-11-15T00:30:31.591Z,97605.69
2022-11-15T00:33:02.114Z,97606.31
2022-11-15T00:35:29.342Z,97591.66
2022-11-15T00:37:56.384Z,97599.38
2022-11-15T00:40:22.958Z,97560.47
2022-11-15T00:42:49.580Z,97601.28
2022-11-15T00:45:16.263Z,97592.56
2022-11-15T00:47:46.670Z,97585.28
2022-11-15T00:50:15.347Z,97583.22
2022-11-15T00:52:42.679Z,97583.34
2022-11-15T00:55:18.627Z,97575.78
2022-11-15T00:57:45.713Z,97574.84
2022-11-15T01:00:12.935Z,97574.19
2022-11-15T01:02:39.631Z,97573.84
2022-11-15T01:05:06.624Z,97547.47
2022-11-15T01:07:33.311Z,97569.72
2022-11-15T01:10:00.000Z,97566.81
2022-11-15T01:12:26.598Z,97568.44
2022-11-15T01:14:53.221Z,97580.63
2022-11-15T01:17:19.826Z,97580.00
2022-11-15T01:19:46.355Z,97518.19
2022-11-15T01:22:13.148Z,97554.81
2022-11-15T01:24:39.711Z,97561.28
2022-11-15T01:27:06.619Z,97565.88
2022-11-15T01:29:33.418Z,97559.56
2022-11-15T01:31:59.985Z,97559.41
2022-11-15T01:34:26.670Z,97568.13
2022-11-15T01:36:53.289Z,97519.22
2022-11-15T01:39:20.114Z,97568.28
2022-11-15T01:41:46.720Z,97504.59
2022-11-15T01:44:31.892Z,97558.00
2022-11-15T01:47:01.978Z,97564.22
2022-11-15T01:49:31.224Z,97557.47
2022-11-15T01:51:59.007Z,97553.69
2022-11-15T01:54:26.169Z,97549.59
2022-11-15T01:57:00.646Z,97620.19
2022-11-15T01:59:27.351Z,97498.03
2022-11-15T02:01:54.344Z,97469.06
2022-11-15T02:04:30.341Z,97494.34
2022-11-15T02:06:56.965Z,97507.59
2022-11-15T02:09:24.040Z,97551.44
2022-11-15T02:11:52.024Z,97487.34
2022-11-15T02:14:21.101Z,97549.38
2022-11-15T02:17:04.277Z,97547.69
2022-11-15T02:19:33.759Z,97542.97
2022-11-15T02:22:23.640Z,97536.09
2022-11-15T02:25:20.764Z,97538.31
2022-11-15T02:27:56.284Z,97543.84
2022-11-15T02:30:27.104Z,97537.34
2022-11-15T02:33:03.125Z,97503.22
2022-11-15T02:35:29.621Z,97539.34
2022-11-15T02:38:08.346Z,97534.06
2022-11-15T02:40:59.236Z,97532.13
2022-11-15T02:44:04.766Z,97532.31
2022-11-15T02:47:01.634Z,97527.97
2022-11-15T02:49:30.096Z,97493.16
2022-11-15T02:51:57.198Z,97455.47
2022-11-15T02:54:27.043Z,97529.56
2022-11-15T02:56:57.436Z,97525.81
2022-11-15T02:59:56.008Z,97531.34
2022-11-15T03:02:37.724Z,97534.38
2022-11-15T03:05:28.832Z,97529.75
2022-11-15T03:08:07.477Z,97530.38
2022-11-15T03:11:11.539Z,97527.50
2022-11-15T03:13:54.223Z,97516.38
2022-11-15T03:16:42.439Z,97525.03
2022-11-15T03:19:18.873Z,97524.22
2022-11-15T03:21:46.826Z,97524.53
2022-11-15T03:24:15.306Z,97500.34
2022-11-15T03:26:45.155Z,97517.56
2022-11-15T03:29:41.219Z,97525.31
2022-11-15T03:32:14.932Z,97516.19
2022-11-15T03:34:59.909Z,97515.28
2022-11-15T03:37:51.655Z,97447.44
2022-11-15T03:40:21.175Z,97510.03
2022-11-15T03:42:57.677Z,97499.97
2022-11-15T03:45:40.531Z,97474.25
2022-11-15T03:48:14.674Z,97503.19
2022-11-15T03:50:43.894Z,97501.81
2022-11-15T03:53:11.352Z,97503.03
2022-11-15T03:55:37.883Z,97491.53
2022-11-15T03:58:04.613Z,97466.19
2022-11-15T04:00:31.170Z,97499.19
2022-11-15T04:02:57.984Z,97500.41
2022-11-15T04:05:24.886Z,97499.94
2022-11-15T04:07:51.761Z,97428.78
2022-11-15T04:10:18.776Z,97503.28
2022-11-15T04:12:48.590Z,97442.88
2022-11-15T04:15:20.319Z,97494.63
2022-11-15T04:17:52.042Z,97419.00
2022-11-15T04:20:40.210Z,97495.91
2022-11-15T04:23:37.789Z,97494.25
2022-11-15T04:26:06.782Z,97499.13
2022-11-15T04:28:33.421Z,97451.69
2022-11-15T04:31:00.033Z,97493.63
2022-11-15T04:33:26.721Z,97401.03
2022-11-15T04:36:11.645Z,97434.06
2022-11-15T04:38:38.200Z,97487.38
2022-11-15T04:41:04.963Z,97483.91
2022-11-15T04:43:32.036Z,97474.09
2022-11-15T04:45:58.894Z,97441.16
2022-11-15T04:48:25.525Z,97469.94
2022-11-15T04:50:52.099Z,97477.88
2022-11-15T04:53:18.621Z,97478.84
2022-11-15T04:55:46.759Z,97481.34
2022-11-15T04:58:13.342Z,97474.03
2022-11-15T05:00:40.873Z,97432.03
2022-11-15T05:03:26.075Z,97356.78
2022-11-15T05:05:52.654Z,97470.09
2022-11-15T05:08:19.246Z,97456.59
2022-11-15T05:10:46.087Z,97459.56
2022-11-15T05:13:12.641Z,97464.13
2022-11-15T05:15:39.274Z,97472.34
2022-11-15T05:18:05.941Z,97462.19
2022-11-15T05:20:32.599Z,97463.41
2022-11-15T05:22:59.181Z,97474.34
2022-11-15T05:25:26.110Z,97470.78
2022-11-15T05:27:53.169Z,97470.06
2022-11-15T05:30:19.840Z,97471.44
2022-11-15T05:32:46.508Z,97432.50
2022-11-15T05:35:39.701Z,97472.75
2022-11-15T05:38:06.406Z,97480.50
2022-11-15T05:40:34.443Z,97481.38
2022-11-15T05:43:03.341Z,97475.47
2022-11-15T05:45:30.385Z,97478.84
2022-11-15T05:47:59.957Z,97478.94
2022-11-15T05:50:26.916Z,97487.75
2022-11-15T05:52:55.120Z,97450.28
2022-11-15T05:55:21.810Z,97443.06
2022-11-15T05:57:48.537Z,97480.81
2022-11-15T06:00:15.284Z,97490.19
2022-11-15T06:02:41.857Z,97484.47
2022-11-15T06:05:08.734Z,97486.63
2022-11-15T06:07:35.455Z,97495.66
2022-11-15T06:10:02.317Z,97413.53
2022-11-15T06:12:28.841Z,97490.13
2022-11-15T06:14:55.386Z,97421.91
2022-11-15T06:17:22.018Z,97496.00
2022-11-15T06:19:48.621Z,97504.22
2022-11-15T06:22:15.173Z,97495.56
2022-11-15T06:24:41.750Z,97499.09
2022-11-15T06:27:08.423Z,97497.50
2022-11-15T06:29:34.963Z,97490.81
2022-11-15T06:32:01.536Z,97499.66
2022-11-15T06:34:28.053Z,97485.44
2022-11-15T06:36:54.622Z,97507.75
2022-11-15T06:39:21.442Z,97125.69
2022-11-15T06:41:48.052Z,97503.09
2022-11-15T06:44:14.646Z,97393.28
2022-11-15T06:46:41.229Z,97502.06
2022-11-15T06:49:09.754Z,97505.47
2022-11-15T06:51:36.770Z,97451.88
2022-11-15T06:54:03.436Z,97484.63
2022-11-15T06:56:30.044Z,97502.69
2022-11-15T06:58:56.664Z,97507.84
2022-11-15T07:01:23.378Z,97500.50
2022-11-15T07:03:50.060Z,97500.75
2022-11-15T07:06:16.697Z,97450.22
2022-11-15T07:08:43.336Z,97221.16
2022-11-15T07:11:10.050Z,97477.50
2022-11-15T07:13:38.333Z,97381.00
2022-11-15T07:16:07.427Z,97494.31
2022-11-15T07:18:41.528Z,97473.94
2022-11-15T07:21:10.704Z,97364.97
2022-11-15T07:23:41.756Z,97490.91
2022-11-15T07:26:09.361Z,97490.91
2022-11-15T07:28:36.706Z,97491.09
2022-11-15T07:31:08.463Z,97497.00
2022-11-15T07:33:36.093Z,97499.63
2022-11-15T07:36:05.108Z,97485.34
2022-11-15T07:38:31.941Z,97483.97
2022-11-15T07:41:00.735Z,97486.59
2022-11-15T07:43:31.046Z,97483.28
2022-11-15T07:45:59.616Z,97474.25
2022-11-15T07:48:35.648Z,97480.66
2022-11-15T07:51:14.289Z,97477.56
2022-11-15T07:53:41.717Z,97480.31
2022-11-15T07:56:08.978Z,97469.41
2022-11-15T07:58:36.245Z,97490.94
2022-11-15T08:01:07.411Z,97482.97
2022-11-15T08:03:34.972Z,97442.72
2022-11-15T08:06:01.929Z,97389.84
2022-11-15T08:08:28.589Z,97477.97
2022-11-15T08:10:55.184Z,97474.63
2022-11-15T08:13:22.411Z,97434.63
2022-11-15T08:15:53.407Z,97412.78
2022-11-15T08:18:22.985Z,97482.34
2022-11-15T08:20:49.596Z,97374.78
2022-11-15T08:23:16.198Z,97479.41
2022-11-15T08:25:42.833Z,97476.72
2022-11-15T08:28:11.455Z,97486.66
2022-11-15T08:30:43.072Z,97414.81
2022-11-15T08:33:14.717Z,97440.53
2022-11-15T08:35:42.495Z,97437.69
2022-11-15T08:38:10.793Z,97464.56
2022-11-15T08:40:38.280Z,97417.19
2022-11-15T08:43:04.972Z,97430.88
2022-11-15T08:45:31.885Z,97473.22
2022-11-15T08:47:58.930Z,97455.50
2022-11-15T08:50:25.520Z,97462.91
2022-11-15T08:52:52.155Z,97473.97
2022-11-15T08:55:18.842Z,97459.00
2022-11-15T08:57:45.905Z,97443.47
2022-11-15T09:00:14.341Z,97453.56
2022-11-15T09:02:41.415Z,97458.84
2022-11-15T09:05:08.866Z,97400.31
2022-11-15T09:07:35.485Z,97409.84
2022-11-15T09:10:02.070Z,97444.78
2022-11-15T09:12:49.407Z,97399.63
2022-11-15T09:15:26.188Z,97433.13
2022-11-15T09:18:00.907Z,97418.56
2022-11-15T09:20:37.482Z,97371.25
2022-11-15T09:23:05.439Z,97306.13
2022-11-15T09:25:32.601Z,97286.66
2022-11-15T09:27:59.444Z,97384.09
2022-11-15T09:30:26.696Z,97322.75
2022-11-15T09:32:53.265Z,97398.72
2022-11-15T09:35:19.790Z,97375.75
2022-11-15T09:37:46.664Z,97397.06
2022-11-15T09:40:17.433Z,97395.22
2022-11-15T09:43:11.694Z,97384.00
2022-11-15T09:45:58.966Z,97380.41
2022-11-15T09:48:49.702Z,97373.06
2022-11-15T09:51:22.270Z,97370.44
2022-11-15T09:54:30.797Z,97368.97
2022-11-15T09:56:45.726Z,97365.06
2022-11-15T09:59:37.290Z,97362.00
2022-11-15T10:02:19.012Z,97357.25
2022-11-15T10:04:46.144Z,97355.22
2022-11-15T10:07:15.996Z,97350.91
2022-11-15T10:10:07.184Z,97346.94
2022-11-15T10:12:34.047Z,97345.78
2022-11-15T10:15:12.913Z,97248.06
2022-11-15T10:18:05.520Z,97171.06
2022-11-15T10:20:54.462Z,97334.72
2022-11-15T10:23:23.596Z,97331.69
2022-11-15T10:25:56.588Z,97334.00
2022-11-15T10:28:23.095Z,97318.06
2022-11-15T10:30:54.677Z,97310.03
2022-11-15T10:33:30.639Z,97313.22
2022-11-15T10:36:09.425Z,97303.75
2022-11-15T10:38:51.140Z,97300.66
2022-11-15T10:41:21.269Z,97186.47
2022-11-15T10:44:21.599Z,97300.72
2022-11-15T10:47:28.512Z,97271.94
2022-11-15T10:50:04.781Z,97302.34
2022-11-15T10:52:34.169Z,97285.59
2022-11-15T10:55:06.805Z,97280.03
2022-11-15T10:57:38.415Z,97279.63
2022-11-15T11:00:27.153Z,97285.59
2022-11-15T11:02:56.410Z,97282.00
2022-11-15T11:05:30.310Z,97268.38
2022-11-15T11:08:06.792Z,97272.72
2022-11-15T11:10:52.239Z,97281.94
2022-11-15T11:13:25.892Z,97280.25
2022-11-15T11:16:17.036Z,96969.53
2022-11-15T11:18:52.064Z,97265.06
2022-11-15T11:21:42.775Z,97267.34
2022-11-15T11:24:26.469Z,97260.81
2022-11-15T11:27:27.749Z,97226.41
2022-11-15T11:30:00.308Z,97245.66
2022-11-15T11:32:57.519Z,97247.25
2022-11-15T11:35:27.184Z,97239.31
2022-11-15T11:38:16.495Z,97234.31
2022-11-15T11:41:02.236Z,97232.50
2022-11-15T11:43:38.360Z,97233.78
2022-11-15T11:46:29.475Z,97225.44
2022-11-15T11:49:17.204Z,97225.22
2022-11-15T11:51:52.723Z,97227.41
2022-11-15T11:54:41.046Z,97217.69
2022-11-15T11:57:24.926Z,97187.03
2022-11-15T11:59:57.074Z,97154.69
2022-11-15T12:02:35.406Z,97208.00
2022-11-15T12:05:43.095Z,97202.88
2022-11-15T12:08:46.892Z,97196.97
2022-11-15T12:11:56.292Z,97190.63
2022-11-15T12:14:32.761Z,97142.03
2022-11-15T12:17:00.217Z,97189.97
2022-11-15T12:19:27.475Z,97182.06
2022-11-15T12:22:15.667Z,97178.88
2022-11-15T12:24:55.861Z,97155.34
2022-11-15T12:27:43.514Z,97174.94
2022-11-15T12:30:23.989Z,97171.38
2022-11-15T12:33:01.605Z,97168.22
2022-11-15T12:35:28.122Z,97162.63
2022-11-15T12:37:56.965Z,97153.44
2022-11-15T12:40:26.447Z,97163.00
2022-11-15T12:43:37.425Z,97141.50
2022-11-15T12:46:06.928Z,97151.06
2022-11-15T12:48:36.445Z,97149.50
2022-11-15T12:51:03.872Z,97119.16
2022-11-15T12:53:32.817Z,97150.34
2022-11-15T12:56:05.441Z,97146.84
2022-11-15T12:58:53.217Z,97152.00
2022-11-15T13:01:32.273Z,97143.19
2022-11-15T13:04:20.262Z,97146.34
2022-11-15T13:07:08.572Z,97120.47
2022-11-15T13:09:35.212Z,97138.38
2022-11-15T13:12:02.919Z,97137.63
2022-11-15T13:14:40.422Z,97145.50
2022-11-15T13:17:30.791Z,97130.34
2022-11-15T13:20:12.540Z,97128.84
2022-11-15T13:22:52.867Z,97127.22
2022-11-15T13:25:20.233Z,97122.50
2022-11-15T13:27:51.682Z,97060.31
2022-11-15T13:30:24.763Z,97095.38
2022-11-15T13:32:52.764Z,97111.38
2022-11-15T13:35:23.122Z,97110.56
2022-11-15T13:37:50.863Z,97097.38
2022-11-15T13:40:31.406Z,97108.50
2022-11-15T13:42:59.322Z,97094.56
2022-11-15T13:45:27.254Z,97077.06
2022-11-15T13:47:59.145Z,97101.78
2022-11-15T13:50:31.963Z,97024.44
2022-11-15T13:53:03.065Z,97093.75
2022-11-15T13:55:31.349Z,97033.13
2022-11-15T13:58:01.319Z,97056.25
2022-11-15T14:00:42.677Z,97043.00
2022-11-15T14:03:16.452Z,97090.34
2022-11-15T14:05:43.903Z,97053.53
2022-11-15T14:08:23.991Z,97084.00
2022-11-15T14:11:09.402Z,97085.53
2022-11-15T14:13:36.609Z,97081.53
2022-11-15T14:16:37.185Z,97079.50
2022-11-15T14:19:05.745Z,97074.16
2022-11-15T14:21:33.160Z,97074.19
2022-11-15T14:24:22.525Z,97081.97
2022-11-15T14:26:49.592Z,97079.53
2022-11-15T14:29:27.549Z,97079.41
2022-11-15T14:31:55.542Z,97068.91
2022-11-15T14:34:23.309Z,97076.78
2022-11-15T14:36:49.916Z,97048.06
2022-11-15T14:39:16.501Z,97063.91
2022-11-15T14:41:43.208Z,97070.56
2022-11-15T14:44:11.842Z,97067.19
2022-11-15T14:46:38.428Z,97066.00
2022-11-15T14:49:05.036Z,97070.53
2022-11-15T14:51:33.939Z,97065.97
2022-11-15T14:54:00.551Z,97067.13
2022-11-15T14:56:27.258Z,97066.16
2022-11-15T14:58:55.956Z,97076.28
2022-11-15T15:01:25.625Z,97069.78
2022-11-15T15:03:55.153Z,97075.16
2022-11-15T15:06:21.717Z,97075.03
2022-11-15T15:08:51.390Z,97081.09
2022-11-15T15:11:27.087Z,97074.69
2022-11-15T15:13:56.640Z,97072.53
2022-11-15T15:16:23.516Z,97076.91
2022-11-15T15:18:51.301Z,97069.75
2022-11-15T15:21:24.507Z,97019.34
2022-11-15T15:23:51.609Z,97080.00
2022-11-15T15:26:18.559Z,97075.81
2022-11-15T15:28:45.188Z,97079.50
2022-11-15T15:31:12.210Z,97084.16
2022-11-15T15:33:39.021Z,97003.31
2022-11-15T15:36:06.157Z,97084.06
2022-11-15T15:38:33.084Z,97050.44
2022-11-15T15:41:02.928Z,97068.91
2022-11-15T15:43:29.654Z,97012.13
2022-11-15T15:45:56.276Z,97027.16
2022-11-15T15:48:22.826Z,97071.09
2022-11-15T15:50:50.286Z,97040.53
2022-11-15T15:53:18.329Z,97068.31
2022-11-15T15:55:44.905Z,97066.59
2022-11-15T15:58:11.442Z,97066.59
2022-11-15T16:00:39.030Z,97074.19
2022-11-15T16:03:05.572Z,97056.88
2022-11-15T16:05:32.241Z,97070.69
2022-11-15T16:07:58.883Z,97077.81
2022-11-15T16:10:28.016Z,97064.25
2022-11-15T16:12:56.397Z,97067.47
2022-11-15T16:15:24.882Z,97076.16
2022-11-15T16:17:56.886Z,97060.34
2022-11-15T16:20:46.074Z,97075.06
2022-11-15T16:23:15.387Z,97045.19
2022-11-15T16:25:46.255Z,97047.09
2022-11-15T16:28:19.779Z,97075.78
2022-11-15T16:30:46.508Z,97086.00
2022-11-15T16:33:13.219Z,97018.59
2022-11-15T16:35:39.774Z,97069.66
2022-11-15T16:38:06.471Z,97077.22
2022-11-15T16:40:36.025Z,97098.19
2022-11-15T16:43:04.521Z,97031.66
2022-11-15T16:45:31.994Z,97084.50
2022-11-15T16:47:58.755Z,97027.94
2022-11-15T16:50:28.090Z,97056.91
2022-11-15T16:52:56.964Z,97081.50
2022-11-15T16:55:26.006Z,97083.50
2022-11-15T16:57:52.655Z,97080.44
2022-11-15T17:00:20.072Z,97074.16
2022-11-15T17:02:48.577Z,97067.19
2022-11-15T17:05:20.281Z,97065.50
2022-11-15T17:07:55.130Z,97070.94
2022-11-15T17:10:23.293Z,97063.38
2022-11-15T17:12:50.756Z,97062.75
2022-11-15T17:15:17.678Z,97048.66
2022-11-15T17:17:45.115Z,96975.59
2022-11-15T17:20:17.662Z,97008.22
2022-11-15T17:22:45.241Z,97026.34
2022-11-15T17:25:11.902Z,96988.41
2022-11-15T17:27:38.547Z,97062.06
2022-11-15T17:30:06.722Z,97070.66
2022-11-15T17:32:36.269Z,97022.69
2022-11-15T17:35:03.749Z,97046.78
2022-11-15T17:37:30.332Z,97007.59
2022-11-15T17:39:56.985Z,97057.09
2022-11-15T17:42:23.568Z,97038.63
2022-11-15T17:44:50.205Z,96991.22
2022-11-15T17:47:16.731Z,96947.34
2022-11-15T17:49:43.277Z,97032.06
2022-11-15T17:52:09.878Z,97008.47
2022-11-15T17:54:36.543Z,97027.41
2022-11-15T17:57:03.269Z,97023.31
2022-11-15T17:59:29.905Z,97031.00
2022-11-15T18:01:56.421Z,97025.00
2022-11-15T18:04:28.169Z,97017.22
2022-11-15T18:06:56.559Z,97025.63
2022-11-15T18:09:23.309Z,97026.34
2022-11-15T18:11:51.685Z,97028.50
2022-11-15T18:14:19.329Z,97026.16
2022-11-15T18:16:46.169Z,97005.38
2022-11-15T18:19:13.851Z,97024.56
2022-11-15T18:21:58.923Z,96995.66
2022-11-15T18:24:28.643Z,97013.97
2022-11-15T18:26:55.805Z,97003.34
2022-11-15T18:29:24.528Z,97011.63
2022-11-15T18:31:55.069Z,97008.28
2022-11-15T18:34:23.557Z,97005.53
2022-11-15T18:36:52.194Z,96995.38
2022-11-15T18:39:19.253Z,96999.38
2022-11-15T18:41:49.397Z,96995.78
2022-11-15T18:44:16.418Z,96994.66
2022-11-15T18:46:45.069Z,96999.28
2022-11-15T18:49:13.365Z,96994.47
2022-11-15T18:51:43.252Z,96995.19
2022-11-15T18:54:11.989Z,96952.69
2022-11-15T18:56:39.133Z,96982.94
2022-11-15T18:59:06.236Z,96978.47
2022-11-15T19:01:35.457Z,96931.16
2022-11-15T19:04:14.017Z,96975.00
2022-11-15T19:06:42.938Z,96977.25
2022-11-15T19:09:11.334Z,96939.06
2022-11-15T19:11:39.781Z,96974.56
2022-11-15T19:14:11.984Z,96955.88
2022-11-15T19:16:44.584Z,96982.81
2022-11-15T19:19:16.079Z,96961.22
2022-11-15T19:21:43.161Z,96980.94
2022-11-15T19:24:13.031Z,96979.59
2022-11-15T19:26:40.303Z,96979.84
2022-11-15T19:29:10.248Z,96981.47
2022-11-15T19:31:37.328Z,96981.25
2022-11-15T19:34:06.230Z,96973.25
2022-11-15T19:36:35.972Z,96932.09
2022-11-15T19:39:08.252Z,96919.56
2022-11-15T19:41:36.457Z,96946.53
2022-11-15T19:44:03.226Z,96963.94
2022-11-15T19:46:29.971Z,96956.84
2022-11-15T19:48:56.535Z,96935.31
2022-11-15T19:51:27.111Z,96853.88
2022-11-15T19:53:58.653Z,96896.38
2022-11-15T19:56:25.513Z,96968.25
2022-11-15T19:58:54.026Z,96962.50
2022-11-15T20:01:26.214Z,96967.34
2022-11-15T20:03:55.659Z,96956.34
2022-11-15T20:06:24.482Z,96957.50
2022-11-15T20:08:51.349Z,96955.91
2022-11-15T20:11:18.874Z,96899.00
2022-11-15T20:13:47.284Z,96943.97
2022-11-15T20:16:21.749Z,96934.63
2022-11-15T20:18:49.732Z,96938.28
2022-11-15T20:21:17.066Z,96921.56
2022-11-15T20:23:44.227Z,96895.66
2022-11-15T20:26:11.527Z,96942.19
2022-11-15T20:28:39.656Z,96954.56
2022-11-15T20:31:07.377Z,96915.00
2022-11-15T20:33:34.643Z,96937.59
2022-11-15T20:36:06.513Z,96937.38
2022-11-15T20:38:34.700Z,96933.72
2022-11-15T20:41:01.792Z,96857.41
2022-11-15T20:43:28.435Z,96913.28
2022-11-15T20:45:55.079Z,96934.41
2022-11-15T20:48:21.824Z,96874.47
2022-11-15T20:50:48.529Z,96930.63
2022-11-15T20:53:17.893Z,96921.59
2022-11-15T20:55:50.964Z,96920.44
2022-11-15T20:58:18.091Z,96912.28
2022-11-15T21:00:45.493Z,96917.06
2022-11-15T21:03:13.872Z,96916.94
2022-11-15T21:05:44.351Z,96906.84
2022-11-15T21:08:12.594Z,96914.19
2022-11-15T21:10:59.273Z,96914.09
2022-11-15T21:13:26.797Z,96893.38
2022-11-15T21:16:00.571Z,96911.78
2022-11-15T21:18:27.124Z,96902.72
2022-11-15T21:20:53.911Z,96905.25
2022-11-15T21:23:21.210Z,96906.38
2022-11-15T21:25:52.108Z,96908.69
2022-11-15T21:28:19.045Z,96906.59
2022-11-15T21:31:00.309Z,96877.28
2022-11-15T21:33:27.726Z,96898.81
2022-11-15T21:35:55.163Z,96867.66
2022-11-15T21:38:26.192Z,96863.38
2022-11-15T21:40:53.774Z,96855.00
2022-11-15T21:43:21.100Z,96860.63
2022-11-15T21:45:59.224Z,96885.78
2022-11-15T21:48:26.920Z,96875.09
2022-11-15T21:51:14.950Z,96874.16
2022-11-15T21:53:41.690Z,96835.28
2022-11-15T21:56:09.048Z,96857.69
2022-11-15T21:58:36.231Z,96873.06
2022-11-15T22:01:21.976Z,96807.31
2022-11-15T22:03:48.672Z,96824.94
2022-11-15T22:06:18.228Z,96867.44
2022-11-15T22:08:46.168Z,96874.69
2022-11-15T22:11:13.540Z,96862.31
2022-11-15T22:13:40.301Z,96835.78
2022-11-15T22:16:08.029Z,96852.88
2022-11-15T22:18:34.919Z,96855.19
2022-11-15T22:21:04.665Z,96840.06
2022-11-15T22:23:32.919Z,96841.00
2022-11-15T22:26:00.169Z,96834.84
2022-11-15T22:28:27.123Z,96831.19
2022-11-15T22:30:55.221Z,96839.41
2022-11-15T22:33:24.035Z,96841.41
2022-11-15T22:35:51.097Z,96899.63
2022-11-15T22:38:18.193Z,96805.97
2022-11-15T22:40:45.172Z,96826.13
2022-11-15T22:43:13.669Z,96779.50
2022-11-15T22:45:52.217Z,96828.47
2022-11-15T22:48:27.624Z,96829.38
2022-11-15T22:50:54.826Z,96816.78
2022-11-15T22:53:22.076Z,96811.78
2022-11-15T22:55:53.199Z,96745.13
2022-11-15T22:58:21.573Z,96814.66
2022-11-15T23:00:52.871Z,96791.06
2022-11-15T23:03:20.596Z,96804.50
2022-11-15T23:05:48.089Z,96744.28
2022-11-15T23:08:15.041Z,96690.34
2022-11-15T23:11:00.697Z,96781.56
2022-11-15T23:13:29.305Z,96788.66
2022-11-15T23:16:25.600Z,96772.75
2022-11-15T23:18:55.923Z,96785.19
2022-11-15T23:21:47.065Z,96782.22
2022-11-15T23:24:14.777Z,96772.66
2022-11-15T23:26:41.884Z,96774.47
2022-11-15T23:29:10.279Z,96762.81
2022-11-15T23:32:01.606Z,96768.56
2022-11-15T23:34:32.832Z,96762.38
2022-11-15T23:36:59.861Z,96754.84
2022-11-15T23:39:26.686Z,96758.97
2022-11-15T23:41:53.829Z,96776.44
2022-11-15T23:44:20.495Z,96748.19
2022-11-15T23:46:47.246Z,96751.63
2022-11-15T23:49:13.947Z,96736.78
2022-11-15T23:51:40.705Z,96733.34
2022-11-15T23:54:07.974Z,96732.44
2022-11-15T23:56:34.894Z,96737.78
2022-11-15T23:59:01.554Z,96728.50
